Terminal Aerodrome Forecast
Issued by NWS

Home | Current Version | Previous Version | Graphics & Text | Print | Product List | Glossary On
Versions: 1 2 3 4 5 6 7 8 9 10 11 12 13 14 15 16 17 18 19 20 21 22 23 24 25 26 27 28 29 30 31
000
FTUS43 KLOT 200246 AAA
TAFORD
TAF AMD
KORD 200246Z 2003/2106 21018G27KT P6SM OVC250 WS020/23055KT
     FM200700 23012KT P6SM OVC250
     FM201600 24008KT P6SM BKN020
     FM201900 23009KT P6SM OVC012
     FM202300 22006KT 5SM BR OVC008
     FM210400 21005KT 2SM BR OVC005=

USA.gov is the U.S. government's official web portal to all federal, state and local government web resources and services.